sensor_id;sensor_type;location;lat;lon;timestamp;P1;durP1;ratioP1;P2;durP2;ratioP2
65206;SDS011;58477;48.072;11.970;2022-08-11T00:02:37;5.03;;;2.08;;
65206;SDS011;58477;48.072;11.970;2022-08-11T00:15:24;4.75;;;2.28;;
65206;SDS011;58477;48.072;11.970;2022-08-11T00:17:57;2.67;;;2.00;;
65206;SDS011;58477;48.072;11.970;2022-08-11T00:20:30;3.30;;;2.13;;
65206;SDS011;58477;48.072;11.970;2022-08-11T00:25:37;4.10;;;2.50;;
65206;SDS011;58477;48.072;11.970;2022-08-11T00:28:21;5.73;;;2.20;;
65206;SDS011;58477;48.072;11.970;2022-08-11T00:30:58;2.80;;;2.15;;
65206;SDS011;58477;48.072;11.970;2022-08-11T00:33:37;3.58;;;2.25;;
65206;SDS011;58477;48.072;11.970;2022-08-11T00:36:05;3.05;;;2.22;;
65206;SDS011;58477;48.072;11.970;2022-08-11T00:38:33;3.20;;;2.25;;
65206;SDS011;58477;48.072;11.970;2022-08-11T00:41:10;3.20;;;2.20;;
65206;SDS011;58477;48.072;11.970;2022-08-11T01:00:48;5.60;;;2.00;;
65206;SDS011;58477;48.072;11.970;2022-08-11T01:21:31;2.70;;;2.30;;
65206;SDS011;58477;48.072;11.970;2022-08-11T01:27:35;5.80;;;2.72;;
65206;SDS011;58477;48.072;11.970;2022-08-11T01:39:00;4.47;;;2.30;;
65206;SDS011;58477;48.072;11.970;2022-08-11T01:53:37;4.18;;;2.72;;
65206;SDS011;58477;48.072;11.970;2022-08-11T02:04:55;2.72;;;2.50;;
65206;SDS011;58477;48.072;11.970;2022-08-11T02:08:10;3.20;;;2.72;;
65206;SDS011;58477;48.072;11.970;2022-08-11T02:10:26;3.30;;;2.60;;
65206;SDS011;58477;48.072;11.970;2022-08-11T02:19:04;5.75;;;2.80;;
65206;SDS011;58477;48.072;11.970;2022-08-11T02:22:15;4.25;;;2.88;;
65206;SDS011;58477;48.072;11.970;2022-08-11T02:25:10;2.97;;;2.65;;
65206;SDS011;58477;48.072;11.970;2022-08-11T02:27:54;7.47;;;2.92;;
65206;SDS011;58477;48.072;11.970;2022-08-11T02:30:26;3.83;;;2.78;;
65206;SDS011;58477;48.072;11.970;2022-08-11T02:35:51;10.07;;;3.05;;
65206;SDS011;58477;48.072;11.970;2022-08-11T02:38:27;8.77;;;3.10;;
65206;SDS011;58477;48.072;11.970;2022-08-11T02:47:02;4.35;;;2.78;;
65206;SDS011;58477;48.072;11.970;2022-08-11T03:03:46;3.13;;;2.80;;
65206;SDS011;58477;48.072;11.970;2022-08-11T03:09:05;8.55;;;3.40;;
65206;SDS011;58477;48.072;11.970;2022-08-11T03:11:41;2.97;;;2.72;;
65206;SDS011;58477;48.072;11.970;2022-08-11T03:14:36;4.20;;;2.72;;
65206;SDS011;58477;48.072;11.970;2022-08-11T03:29:14;5.20;;;3.28;;
65206;SDS011;58477;48.072;11.970;2022-08-11T03:31:29;7.85;;;3.00;;
65206;SDS011;58477;48.072;11.970;2022-08-11T03:48:18;3.17;;;2.90;;
65206;SDS011;58477;48.072;11.970;2022-08-11T03:57:02;4.38;;;3.53;;
65206;SDS011;58477;48.072;11.970;2022-08-11T04:02:14;5.43;;;3.40;;
65206;SDS011;58477;48.072;11.970;2022-08-11T04:13:23;4.47;;;3.38;;
65206;SDS011;58477;48.072;11.970;2022-08-11T04:22:02;4.40;;;3.47;;
65206;SDS011;58477;48.072;11.970;2022-08-11T04:36:01;4.45;;;3.38;;
65206;SDS011;58477;48.072;11.970;2022-08-11T04:45:09;5.45;;;3.10;;
65206;SDS011;58477;48.072;11.970;2022-08-11T04:50:56;4.65;;;3.47;;
65206;SDS011;58477;48.072;11.970;2022-08-11T05:00:39;4.40;;;3.33;;
65206;SDS011;58477;48.072;11.970;2022-08-11T05:03:45;4.57;;;3.40;;
65206;SDS011;58477;48.072;11.970;2022-08-11T05:07:45;9.23;;;3.58;;
65206;SDS011;58477;48.072;11.970;2022-08-11T05:12:56;6.70;;;3.25;;
65206;SDS011;58477;48.072;11.970;2022-08-11T05:15:48;7.07;;;3.17;;
65206;SDS011;58477;48.072;11.970;2022-08-11T05:18:44;6.50;;;3.10;;
65206;SDS011;58477;48.072;11.970;2022-08-11T05:21:31;4.05;;;3.15;;
65206;SDS011;58477;48.072;11.970;2022-08-11T05:24:25;4.15;;;3.05;;
65206;SDS011;58477;48.072;11.970;2022-08-11T05:27:12;5.10;;;3.30;;
65206;SDS011;58477;48.072;11.970;2022-08-11T05:30:05;5.93;;;3.15;;
65206;SDS011;58477;48.072;11.970;2022-08-11T05:36:07;6.85;;;3.00;;
65206;SDS011;58477;48.072;11.970;2022-08-11T05:38:53;3.78;;;3.13;;
65206;SDS011;58477;48.072;11.970;2022-08-11T05:41:50;4.22;;;3.22;;
65206;SDS011;58477;48.072;11.970;2022-08-11T05:44:43;2.80;;;2.60;;
65206;SDS011;58477;48.072;11.970;2022-08-11T05:47:28;6.40;;;2.72;;
65206;SDS011;58477;48.072;11.970;2022-08-11T05:50:13;3.15;;;2.85;;
65206;SDS011;58477;48.072;11.970;2022-08-11T05:53:00;4.93;;;3.60;;
65206;SDS011;58477;48.072;11.970;2022-08-11T05:55:46;4.28;;;3.08;;
65206;SDS011;58477;48.072;11.970;2022-08-11T05:58:33;5.72;;;3.25;;
65206;SDS011;58477;48.072;11.970;2022-08-11T06:01:06;5.28;;;3.38;;
65206;SDS011;58477;48.072;11.970;2022-08-11T06:03:33;4.30;;;3.15;;
65206;SDS011;58477;48.072;11.970;2022-08-11T06:06:23;4.53;;;3.05;;
65206;SDS011;58477;48.072;11.970;2022-08-11T06:08:49;7.22;;;3.22;;
65206;SDS011;58477;48.072;11.970;2022-08-11T06:11:19;6.13;;;3.30;;
65206;SDS011;58477;48.072;11.970;2022-08-11T06:13:45;4.35;;;3.13;;
65206;SDS011;58477;48.072;11.970;2022-08-11T06:16:12;4.93;;;3.13;;
65206;SDS011;58477;48.072;11.970;2022-08-11T06:18:44;3.85;;;2.80;;
65206;SDS011;58477;48.072;11.970;2022-08-11T06:21:10;4.18;;;2.97;;
65206;SDS011;58477;48.072;11.970;2022-08-11T06:23:37;5.47;;;3.22;;
65206;SDS011;58477;48.072;11.970;2022-08-11T06:26:08;4.63;;;2.75;;
65206;SDS011;58477;48.072;11.970;2022-08-11T06:28:35;4.15;;;2.75;;
65206;SDS011;58477;48.072;11.970;2022-08-11T06:31:10;5.53;;;2.60;;
65206;SDS011;58477;48.072;11.970;2022-08-11T06:33:59;4.15;;;2.80;;
65206;SDS011;58477;48.072;11.970;2022-08-11T06:36:37;5.32;;;2.75;;
65206;SDS011;58477;48.072;11.970;2022-08-11T06:41:52;3.92;;;2.88;;
65206;SDS011;58477;48.072;11.970;2022-08-11T06:44:32;5.07;;;2.72;;
65206;SDS011;58477;48.072;11.970;2022-08-11T06:47:08;7.32;;;2.60;;
65206;SDS011;58477;48.072;11.970;2022-08-11T06:49:37;4.68;;;2.83;;
65206;SDS011;58477;48.072;11.970;2022-08-11T06:52:45;5.95;;;3.15;;
65206;SDS011;58477;48.072;11.970;2022-08-11T06:55:20;3.53;;;2.72;;
65206;SDS011;58477;48.072;11.970;2022-08-11T06:58:15;3.60;;;2.70;;
65206;SDS011;58477;48.072;11.970;2022-08-11T07:01:06;5.45;;;2.80;;
65206;SDS011;58477;48.072;11.970;2022-08-11T07:03:41;5.68;;;2.95;;
65206;SDS011;58477;48.072;11.970;2022-08-11T07:09:05;14.95;;;3.92;;
65206;SDS011;58477;48.072;11.970;2022-08-11T07:12:13;7.43;;;2.90;;
65206;SDS011;58477;48.072;11.970;2022-08-11T07:15:10;5.43;;;2.65;;
65206;SDS011;58477;48.072;11.970;2022-08-11T07:17:55;7.72;;;3.30;;
65206;SDS011;58477;48.072;11.970;2022-08-11T07:20:41;9.02;;;2.95;;
65206;SDS011;58477;48.072;11.970;2022-08-11T07:23:27;5.55;;;2.63;;
65206;SDS011;58477;48.072;11.970;2022-08-11T07:26:17;3.72;;;2.45;;
65206;SDS011;58477;48.072;11.970;2022-08-11T07:29:04;5.40;;;2.85;;
65206;SDS011;58477;48.072;11.970;2022-08-11T07:31:33;5.35;;;2.83;;
65206;SDS011;58477;48.072;11.970;2022-08-11T07:34:26;3.00;;;2.70;;
65206;SDS011;58477;48.072;11.970;2022-08-11T07:36:57;3.58;;;2.70;;
65206;SDS011;58477;48.072;11.970;2022-08-11T07:39:25;5.28;;;2.83;;
65206;SDS011;58477;48.072;11.970;2022-08-11T07:41:53;4.68;;;2.60;;
65206;SDS011;58477;48.072;11.970;2022-08-11T07:44:21;6.70;;;3.00;;
65206;SDS011;58477;48.072;11.970;2022-08-11T07:46:50;6.25;;;2.70;;
65206;SDS011;58477;48.072;11.970;2022-08-11T07:49:36;8.80;;;3.05;;
65206;SDS011;58477;48.072;11.970;2022-08-11T07:52:22;6.63;;;2.70;;
65206;SDS011;58477;48.072;11.970;2022-08-11T07:55:00;4.60;;;2.28;;
65206;SDS011;58477;48.072;11.970;2022-08-11T07:57:46;4.20;;;2.70;;
65206;SDS011;58477;48.072;11.970;2022-08-11T08:00:47;8.15;;;2.58;;
65206;SDS011;58477;48.072;11.970;2022-08-11T08:03:33;4.82;;;2.53;;
65206;SDS011;58477;48.072;11.970;2022-08-11T08:06:19;9.85;;;2.65;;
65206;SDS011;58477;48.072;11.970;2022-08-11T08:09:03;4.78;;;2.72;;
65206;SDS011;58477;48.072;11.970;2022-08-11T08:11:50;5.38;;;2.50;;
65206;SDS011;58477;48.072;11.970;2022-08-11T08:14:34;7.05;;;2.30;;
65206;SDS011;58477;48.072;11.970;2022-08-11T08:17:19;3.10;;;2.45;;
65206;SDS011;58477;48.072;11.970;2022-08-11T08:20:04;4.20;;;2.15;;
65206;SDS011;58477;48.072;11.970;2022-08-11T08:22:34;3.08;;;2.13;;
65206;SDS011;58477;48.072;11.970;2022-08-11T08:25:00;4.72;;;2.38;;
65206;SDS011;58477;48.072;11.970;2022-08-11T08:27:26;3.42;;;2.25;;
65206;SDS011;58477;48.072;11.970;2022-08-11T08:29:52;4.22;;;2.83;;
65206;SDS011;58477;48.072;11.970;2022-08-11T08:32:38;5.45;;;2.10;;
65206;SDS011;58477;48.072;11.970;2022-08-11T08:35:05;3.45;;;2.47;;
65206;SDS011;58477;48.072;11.970;2022-08-11T08:37:32;3.85;;;2.25;;
65206;SDS011;58477;48.072;11.970;2022-08-11T08:39:57;6.00;;;2.53;;
65206;SDS011;58477;48.072;11.970;2022-08-11T08:42:25;3.10;;;2.33;;
65206;SDS011;58477;48.072;11.970;2022-08-11T08:45:04;6.28;;;2.22;;
65206;SDS011;58477;48.072;11.970;2022-08-11T08:47:34;6.78;;;2.38;;
65206;SDS011;58477;48.072;11.970;2022-08-11T08:50:12;2.83;;;2.30;;
65206;SDS011;58477;48.072;11.970;2022-08-11T08:52:49;4.00;;;2.55;;
65206;SDS011;58477;48.072;11.970;2022-08-11T08:55:18;3.88;;;2.45;;
65206;SDS011;58477;48.072;11.970;2022-08-11T08:57:45;4.85;;;2.30;;
65206;SDS011;58477;48.072;11.970;2022-08-11T09:00:13;3.03;;;2.08;;
65206;SDS011;58477;48.072;11.970;2022-08-11T09:02:40;7.22;;;2.50;;
65206;SDS011;58477;48.072;11.970;2022-08-11T09:05:06;4.22;;;2.10;;
65206;SDS011;58477;48.072;11.970;2022-08-11T09:07:34;4.75;;;2.22;;
65206;SDS011;58477;48.072;11.970;2022-08-11T09:09:59;2.42;;;2.20;;
65206;SDS011;58477;48.072;11.970;2022-08-11T09:12:26;2.72;;;2.25;;
65206;SDS011;58477;48.072;11.970;2022-08-11T09:14:54;5.35;;;2.40;;
65206;SDS011;58477;48.072;11.970;2022-08-11T09:17:25;4.22;;;2.25;;
65206;SDS011;58477;48.072;11.970;2022-08-11T09:20:03;4.82;;;2.50;;
65206;SDS011;58477;48.072;11.970;2022-08-11T09:22:32;7.25;;;2.20;;
65206;SDS011;58477;48.072;11.970;2022-08-11T09:25:20;6.20;;;2.25;;
65206;SDS011;58477;48.072;11.970;2022-08-11T09:28:09;8.60;;;2.55;;
65206;SDS011;58477;48.072;11.970;2022-08-11T09:30:35;9.07;;;2.53;;
65206;SDS011;58477;48.072;11.970;2022-08-11T09:33:03;4.18;;;2.53;;
65206;SDS011;58477;48.072;11.970;2022-08-11T09:35:30;3.13;;;2.17;;
65206;SDS011;58477;48.072;11.970;2022-08-11T09:37:58;4.63;;;2.20;;
65206;SDS011;58477;48.072;11.970;2022-08-11T09:40:44;4.43;;;1.88;;
65206;SDS011;58477;48.072;11.970;2022-08-11T09:43:12;2.67;;;2.20;;
65206;SDS011;58477;48.072;11.970;2022-08-11T09:45:57;6.43;;;2.40;;
65206;SDS011;58477;48.072;11.970;2022-08-11T09:48:25;8.10;;;2.40;;
65206;SDS011;58477;48.072;11.970;2022-08-11T09:50:53;4.05;;;2.30;;
65206;SDS011;58477;48.072;11.970;2022-08-11T09:53:21;5.03;;;2.60;;
65206;SDS011;58477;48.072;11.970;2022-08-11T09:55:49;5.40;;;2.72;;
65206;SDS011;58477;48.072;11.970;2022-08-11T09:58:15;5.53;;;2.40;;
65206;SDS011;58477;48.072;11.970;2022-08-11T10:00:42;4.68;;;2.47;;
65206;SDS011;58477;48.072;11.970;2022-08-11T10:03:14;4.38;;;2.50;;
65206;SDS011;58477;48.072;11.970;2022-08-11T10:05:49;6.57;;;2.50;;
65206;SDS011;58477;48.072;11.970;2022-08-11T10:08:38;4.97;;;2.55;;
65206;SDS011;58477;48.072;11.970;2022-08-11T10:11:05;4.28;;;2.53;;
65206;SDS011;58477;48.072;11.970;2022-08-11T10:13:36;6.55;;;2.33;;
65206;SDS011;58477;48.072;11.970;2022-08-11T10:16:26;4.60;;;2.55;;
65206;SDS011;58477;48.072;11.970;2022-08-11T10:18:54;6.22;;;2.40;;
65206;SDS011;58477;48.072;11.970;2022-08-11T10:21:24;3.00;;;2.08;;
65206;SDS011;58477;48.072;11.970;2022-08-11T10:23:57;9.50;;;2.40;;
65206;SDS011;58477;48.072;11.970;2022-08-11T10:26:43;3.28;;;2.50;;
65206;SDS011;58477;48.072;11.970;2022-08-11T10:29:16;4.88;;;2.30;;
65206;SDS011;58477;48.072;11.970;2022-08-11T10:32:01;5.82;;;1.98;;
65206;SDS011;58477;48.072;11.970;2022-08-11T10:34:47;2.72;;;2.00;;
65206;SDS011;58477;48.072;11.970;2022-08-11T10:37:13;5.00;;;2.00;;
65206;SDS011;58477;48.072;11.970;2022-08-11T10:39:44;4.50;;;1.90;;
65206;SDS011;58477;48.072;11.970;2022-08-11T10:42:10;3.25;;;2.00;;
65206;SDS011;58477;48.072;11.970;2022-08-11T10:44:56;3.47;;;2.22;;
65206;SDS011;58477;48.072;11.970;2022-08-11T10:47:23;7.85;;;2.25;;
65206;SDS011;58477;48.072;11.970;2022-08-11T10:49:59;10.48;;;1.90;;
65206;SDS011;58477;48.072;11.970;2022-08-11T10:52:45;6.18;;;1.77;;
65206;SDS011;58477;48.072;11.970;2022-08-11T10:55:32;3.90;;;2.10;;
65206;SDS011;58477;48.072;11.970;2022-08-11T10:58:18;6.57;;;2.03;;
65206;SDS011;58477;48.072;11.970;2022-08-11T11:01:02;7.78;;;2.00;;
65206;SDS011;58477;48.072;11.970;2022-08-11T11:03:29;5.45;;;2.15;;
65206;SDS011;58477;48.072;11.970;2022-08-11T11:08:59;3.67;;;1.88;;
65206;SDS011;58477;48.072;11.970;2022-08-11T11:11:29;6.57;;;2.20;;
65206;SDS011;58477;48.072;11.970;2022-08-11T11:14:19;2.73;;;1.80;;
65206;SDS011;58477;48.072;11.970;2022-08-11T11:17:05;3.13;;;1.60;;
65206;SDS011;58477;48.072;11.970;2022-08-11T11:19:39;7.70;;;1.83;;
65206;SDS011;58477;48.072;11.970;2022-08-11T11:22:06;3.63;;;1.80;;
65206;SDS011;58477;48.072;11.970;2022-08-11T11:37:11;3.50;;;2.03;;
65206;SDS011;58477;48.072;11.970;2022-08-11T11:39:39;2.75;;;1.98;;
65206;SDS011;58477;48.072;11.970;2022-08-11T11:42:06;3.03;;;2.10;;
65206;SDS011;58477;48.072;11.970;2022-08-11T11:44:35;3.35;;;1.85;;
65206;SDS011;58477;48.072;11.970;2022-08-11T11:47:03;2.72;;;1.70;;
65206;SDS011;58477;48.072;11.970;2022-08-11T11:49:30;3.28;;;1.98;;
65206;SDS011;58477;48.072;11.970;2022-08-11T11:51:56;1.67;;;1.58;;
65206;SDS011;58477;48.072;11.970;2022-08-11T11:54:24;1.60;;;1.45;;
65206;SDS011;58477;48.072;11.970;2022-08-11T11:56:54;2.78;;;1.70;;
65206;SDS011;58477;48.072;11.970;2022-08-11T11:59:24;6.40;;;1.63;;
65206;SDS011;58477;48.072;11.970;2022-08-11T12:02:12;3.13;;;1.70;;
65206;SDS011;58477;48.072;11.970;2022-08-11T12:04:39;7.18;;;1.80;;
65206;SDS011;58477;48.072;11.970;2022-08-11T12:07:07;6.22;;;1.70;;
65206;SDS011;58477;48.072;11.970;2022-08-11T12:09:52;2.97;;;1.60;;
65206;SDS011;58477;48.072;11.970;2022-08-11T12:12:19;4.85;;;1.70;;
65206;SDS011;58477;48.072;11.970;2022-08-11T12:15:05;3.13;;;1.88;;
65206;SDS011;58477;48.072;11.970;2022-08-11T12:17:33;2.55;;;1.83;;
65206;SDS011;58477;48.072;11.970;2022-08-11T12:19:59;9.38;;;1.60;;
65206;SDS011;58477;48.072;11.970;2022-08-11T12:22:30;2.67;;;1.40;;
65206;SDS011;58477;48.072;11.970;2022-08-11T12:25:14;1.75;;;1.58;;
65206;SDS011;58477;48.072;11.970;2022-08-11T12:28:00;1.83;;;1.50;;
65206;SDS011;58477;48.072;11.970;2022-08-11T12:30:27;2.42;;;1.73;;
65206;SDS011;58477;48.072;11.970;2022-08-11T12:32:52;6.47;;;1.55;;
65206;SDS011;58477;48.072;11.970;2022-08-11T12:35:19;4.60;;;1.80;;
65206;SDS011;58477;48.072;11.970;2022-08-11T12:37:46;4.20;;;1.58;;
65206;SDS011;58477;48.072;11.970;2022-08-11T12:40:17;5.43;;;1.60;;
65206;SDS011;58477;48.072;11.970;2022-08-11T12:43:06;3.95;;;1.70;;
65206;SDS011;58477;48.072;11.970;2022-08-11T12:45:53;6.07;;;1.60;;
65206;SDS011;58477;48.072;11.970;2022-08-11T12:48:22;2.63;;;1.50;;
65206;SDS011;58477;48.072;11.970;2022-08-11T12:51:11;1.48;;;1.38;;
65206;SDS011;58477;48.072;11.970;2022-08-11T12:56:38;2.78;;;1.48;;
65206;SDS011;58477;48.072;11.970;2022-08-11T12:59:25;3.55;;;1.40;;
65206;SDS011;58477;48.072;11.970;2022-08-11T13:02:10;5.78;;;1.63;;
65206;SDS011;58477;48.072;11.970;2022-08-11T13:04:58;4.35;;;1.50;;
65206;SDS011;58477;48.072;11.970;2022-08-11T13:07:26;8.10;;;1.35;;
65206;SDS011;58477;48.072;11.970;2022-08-11T13:09:52;9.27;;;1.52;;
65206;SDS011;58477;48.072;11.970;2022-08-11T13:12:21;2.92;;;1.48;;
65206;SDS011;58477;48.072;11.970;2022-08-11T13:15:06;5.13;;;1.55;;
65206;SDS011;58477;48.072;11.970;2022-08-11T13:17:35;3.53;;;1.48;;
65206;SDS011;58477;48.072;11.970;2022-08-11T13:20:01;3.60;;;1.50;;
65206;SDS011;58477;48.072;11.970;2022-08-11T13:22:29;1.92;;;1.70;;
65206;SDS011;58477;48.072;11.970;2022-08-11T13:24:54;6.70;;;1.73;;
65206;SDS011;58477;48.072;11.970;2022-08-11T13:27:21;3.55;;;1.60;;
65206;SDS011;58477;48.072;11.970;2022-08-11T13:29:48;4.57;;;1.30;;
65206;SDS011;58477;48.072;11.970;2022-08-11T13:32:18;6.07;;;1.40;;
65206;SDS011;58477;48.072;11.970;2022-08-11T13:34:45;1.88;;;1.48;;
65206;SDS011;58477;48.072;11.970;2022-08-11T13:37:12;8.00;;;1.70;;
65206;SDS011;58477;48.072;11.970;2022-08-11T13:39:39;7.78;;;1.42;;
65206;SDS011;58477;48.072;11.970;2022-08-11T13:42:11;3.22;;;1.70;;
65206;SDS011;58477;48.072;11.970;2022-08-11T13:44:39;4.40;;;1.40;;
65206;SDS011;58477;48.072;11.970;2022-08-11T13:47:06;2.28;;;1.50;;
65206;SDS011;58477;48.072;11.970;2022-08-11T13:49:34;3.47;;;1.30;;
65206;SDS011;58477;48.072;11.970;2022-08-11T13:52:02;1.75;;;1.40;;
65206;SDS011;58477;48.072;11.970;2022-08-11T13:54:30;9.82;;;1.40;;
65206;SDS011;58477;48.072;11.970;2022-08-11T13:57:00;1.40;;;1.30;;
65206;SDS011;58477;48.072;11.970;2022-08-11T13:59:28;4.03;;;1.27;;
65206;SDS011;58477;48.072;11.970;2022-08-11T14:01:55;3.17;;;1.25;;
65206;SDS011;58477;48.072;11.970;2022-08-11T14:04:31;3.45;;;1.42;;
65206;SDS011;58477;48.072;11.970;2022-08-11T14:07:04;3.85;;;1.58;;
65206;SDS011;58477;48.072;11.970;2022-08-11T14:09:34;10.70;;;1.60;;
65206;SDS011;58477;48.072;11.970;2022-08-11T14:12:25;4.28;;;1.52;;
65206;SDS011;58477;48.072;11.970;2022-08-11T14:15:15;2.97;;;1.40;;
65206;SDS011;58477;48.072;11.970;2022-08-11T14:18:08;2.75;;;1.50;;
65206;SDS011;58477;48.072;11.970;2022-08-11T14:20:36;1.42;;;1.33;;
65206;SDS011;58477;48.072;11.970;2022-08-11T14:23:25;1.70;;;1.23;;
65206;SDS011;58477;48.072;11.970;2022-08-11T14:26:13;1.90;;;1.15;;
65206;SDS011;58477;48.072;11.970;2022-08-11T14:28:59;2.05;;;1.38;;
65206;SDS011;58477;48.072;11.970;2022-08-11T14:31:30;2.08;;;1.50;;
65206;SDS011;58477;48.072;11.970;2022-08-11T14:33:59;1.27;;;1.20;;
65206;SDS011;58477;48.072;11.970;2022-08-11T14:36:28;3.60;;;1.27;;
65206;SDS011;58477;48.072;11.970;2022-08-11T14:38:57;4.25;;;1.50;;
65206;SDS011;58477;48.072;11.970;2022-08-11T14:41:26;1.50;;;1.40;;
65206;SDS011;58477;48.072;11.970;2022-08-11T14:44:10;3.35;;;1.33;;
65206;SDS011;58477;48.072;11.970;2022-08-11T14:46:55;6.32;;;1.42;;
65206;SDS011;58477;48.072;11.970;2022-08-11T14:49:34;4.13;;;1.52;;
65206;SDS011;58477;48.072;11.970;2022-08-11T14:52:35;3.53;;;1.70;;
65206;SDS011;58477;48.072;11.970;2022-08-11T14:54:56;3.75;;;1.63;;
65206;SDS011;58477;48.072;11.970;2022-08-11T14:57:40;2.15;;;1.55;;
65206;SDS011;58477;48.072;11.970;2022-08-11T15:00:08;4.55;;;1.83;;
65206;SDS011;58477;48.072;11.970;2022-08-11T15:02:39;2.45;;;1.52;;
65206;SDS011;58477;48.072;11.970;2022-08-11T15:05:25;2.78;;;1.48;;
65206;SDS011;58477;48.072;11.970;2022-08-11T15:07:53;5.50;;;1.40;;
65206;SDS011;58477;48.072;11.970;2022-08-11T15:10:19;4.90;;;1.38;;
65206;SDS011;58477;48.072;11.970;2022-08-11T15:12:46;5.70;;;1.55;;
65206;SDS011;58477;48.072;11.970;2022-08-11T15:15:12;3.75;;;1.38;;
65206;SDS011;58477;48.072;11.970;2022-08-11T15:17:58;2.38;;;1.52;;
65206;SDS011;58477;48.072;11.970;2022-08-11T15:20:28;4.95;;;1.88;;
65206;SDS011;58477;48.072;11.970;2022-08-11T15:23:13;5.20;;;1.80;;
65206;SDS011;58477;48.072;11.970;2022-08-11T15:25:58;7.18;;;1.55;;
65206;SDS011;58477;48.072;11.970;2022-08-11T15:28:28;3.45;;;1.30;;
65206;SDS011;58477;48.072;11.970;2022-08-11T15:31:15;3.28;;;1.20;;
65206;SDS011;58477;48.072;11.970;2022-08-11T15:34:02;4.63;;;1.45;;
65206;SDS011;58477;48.072;11.970;2022-08-11T15:36:47;3.08;;;1.20;;
65206;SDS011;58477;48.072;11.970;2022-08-11T15:39:37;3.65;;;1.25;;
65206;SDS011;58477;48.072;11.970;2022-08-11T15:42:32;4.88;;;1.38;;
65206;SDS011;58477;48.072;11.970;2022-08-11T15:45:22;6.00;;;1.67;;
65206;SDS011;58477;48.072;11.970;2022-08-11T15:48:09;3.78;;;1.20;;
65206;SDS011;58477;48.072;11.970;2022-08-11T15:50:39;4.97;;;1.30;;
65206;SDS011;58477;48.072;11.970;2022-08-11T15:53:32;3.90;;;1.50;;
65206;SDS011;58477;48.072;11.970;2022-08-11T15:55:57;4.63;;;1.70;;
65206;SDS011;58477;48.072;11.970;2022-08-11T15:58:25;9.35;;;1.85;;
65206;SDS011;58477;48.072;11.970;2022-08-11T16:01:14;3.78;;;1.63;;
65206;SDS011;58477;48.072;11.970;2022-08-11T16:04:03;4.53;;;1.60;;
65206;SDS011;58477;48.072;11.970;2022-08-11T16:06:37;5.85;;;1.77;;
65206;SDS011;58477;48.072;11.970;2022-08-11T16:09:08;3.33;;;1.90;;
65206;SDS011;58477;48.072;11.970;2022-08-11T16:11:35;7.07;;;1.73;;
65206;SDS011;58477;48.072;11.970;2022-08-11T16:14:02;2.85;;;1.60;;
65206;SDS011;58477;48.072;11.970;2022-08-11T16:16:49;1.95;;;1.75;;
65206;SDS011;58477;48.072;11.970;2022-08-11T16:19:17;5.68;;;1.67;;
65206;SDS011;58477;48.072;11.970;2022-08-11T16:21:44;4.20;;;1.63;;
65206;SDS011;58477;48.072;11.970;2022-08-11T16:24:14;3.33;;;1.60;;
65206;SDS011;58477;48.072;11.970;2022-08-11T16:26:43;9.35;;;1.70;;
65206;SDS011;58477;48.072;11.970;2022-08-11T16:29:10;2.33;;;1.77;;
65206;SDS011;58477;48.072;11.970;2022-08-11T16:31:37;3.60;;;1.67;;
65206;SDS011;58477;48.072;11.970;2022-08-11T16:34:04;3.72;;;1.67;;
65206;SDS011;58477;48.072;11.970;2022-08-11T16:36:53;5.38;;;1.33;;
65206;SDS011;58477;48.072;11.970;2022-08-11T16:39:39;4.82;;;1.60;;
65206;SDS011;58477;48.072;11.970;2022-08-11T16:42:06;3.42;;;1.25;;
65206;SDS011;58477;48.072;11.970;2022-08-11T16:44:52;2.75;;;1.38;;
65206;SDS011;58477;48.072;11.970;2022-08-11T16:47:39;6.28;;;1.50;;
65206;SDS011;58477;48.072;11.970;2022-08-11T16:50:06;1.40;;;1.30;;
65206;SDS011;58477;48.072;11.970;2022-08-11T16:52:33;2.65;;;1.20;;
65206;SDS011;58477;48.072;11.970;2022-08-11T16:54:58;3.90;;;2.60;;
65206;SDS011;58477;48.072;11.970;2022-08-11T16:57:27;11.68;;;5.22;;
65206;SDS011;58477;48.072;11.970;2022-08-11T17:00:13;2.35;;;1.88;;
65206;SDS011;58477;48.072;11.970;2022-08-11T17:02:41;4.00;;;1.30;;
65206;SDS011;58477;48.072;11.970;2022-08-11T17:05:31;10.25;;;1.60;;
65206;SDS011;58477;48.072;11.970;2022-08-11T17:08:20;12.18;;;4.85;;
65206;SDS011;58477;48.072;11.970;2022-08-11T17:13:58;5.43;;;1.67;;
65206;SDS011;58477;48.072;11.970;2022-08-11T17:16:33;3.10;;;1.40;;
65206;SDS011;58477;48.072;11.970;2022-08-11T17:19:07;5.80;;;1.45;;
65206;SDS011;58477;48.072;11.970;2022-08-11T17:21:40;3.35;;;1.30;;
65206;SDS011;58477;48.072;11.970;2022-08-11T17:24:27;4.60;;;1.27;;
65206;SDS011;58477;48.072;11.970;2022-08-11T17:26:55;5.80;;;1.27;;
65206;SDS011;58477;48.072;11.970;2022-08-11T17:29:25;1.48;;;1.35;;
65206;SDS011;58477;48.072;11.970;2022-08-11T17:32:03;1.90;;;1.15;;
65206;SDS011;58477;48.072;11.970;2022-08-11T17:34:49;1.42;;;1.23;;
65206;SDS011;58477;48.072;11.970;2022-08-11T17:40:08;1.88;;;1.55;;
65206;SDS011;58477;48.072;11.970;2022-08-11T17:42:37;4.93;;;1.60;;
65206;SDS011;58477;48.072;11.970;2022-08-11T17:45:22;1.67;;;1.40;;
65206;SDS011;58477;48.072;11.970;2022-08-11T17:51:02;5.45;;;1.10;;
65206;SDS011;58477;48.072;11.970;2022-08-11T17:53:36;7.25;;;1.38;;
65206;SDS011;58477;48.072;11.970;2022-08-11T17:56:23;3.72;;;1.48;;
65206;SDS011;58477;48.072;11.970;2022-08-11T17:59:08;1.55;;;1.20;;
65206;SDS011;58477;48.072;11.970;2022-08-11T18:01:53;1.50;;;1.40;;
65206;SDS011;58477;48.072;11.970;2022-08-11T18:04:39;1.70;;;1.35;;
65206;SDS011;58477;48.072;11.970;2022-08-11T18:07:07;1.55;;;1.20;;
65206;SDS011;58477;48.072;11.970;2022-08-11T18:09:51;3.20;;;1.40;;
65206;SDS011;58477;48.072;11.970;2022-08-11T18:12:36;1.83;;;1.40;;
65206;SDS011;58477;48.072;11.970;2022-08-11T18:15:20;1.20;;;1.10;;
65206;SDS011;58477;48.072;11.970;2022-08-11T18:18:04;2.65;;;1.33;;
65206;SDS011;58477;48.072;11.970;2022-08-11T18:20:48;3.90;;;1.40;;
65206;SDS011;58477;48.072;11.970;2022-08-11T18:23:33;4.63;;;1.40;;
65206;SDS011;58477;48.072;11.970;2022-08-11T18:26:18;1.42;;;1.30;;
65206;SDS011;58477;48.072;11.970;2022-08-11T18:29:04;1.40;;;1.30;;
65206;SDS011;58477;48.072;11.970;2022-08-11T18:31:50;1.75;;;1.40;;
65206;SDS011;58477;48.072;11.970;2022-08-11T18:34:39;2.22;;;1.33;;
65206;SDS011;58477;48.072;11.970;2022-08-11T18:37:26;1.42;;;1.33;;
65206;SDS011;58477;48.072;11.970;2022-08-11T18:40:14;4.93;;;1.30;;
65206;SDS011;58477;48.072;11.970;2022-08-11T18:45:51;11.60;;;2.22;;
65206;SDS011;58477;48.072;11.970;2022-08-11T18:48:40;1.55;;;1.45;;
65206;SDS011;58477;48.072;11.970;2022-08-11T18:51:31;1.73;;;1.33;;
65206;SDS011;58477;48.072;11.970;2022-08-11T18:54:17;1.42;;;1.20;;
65206;SDS011;58477;48.072;11.970;2022-08-11T18:57:03;1.33;;;1.23;;
65206;SDS011;58477;48.072;11.970;2022-08-11T18:59:50;4.15;;;1.20;;
65206;SDS011;58477;48.072;11.970;2022-08-11T19:02:37;1.92;;;1.20;;
65206;SDS011;58477;48.072;11.970;2022-08-11T19:05:22;2.45;;;1.30;;
65206;SDS011;58477;48.072;11.970;2022-08-11T19:08:08;3.75;;;1.58;;
65206;SDS011;58477;48.072;11.970;2022-08-11T19:10:54;2.08;;;1.20;;
65206;SDS011;58477;48.072;11.970;2022-08-11T19:13:40;2.97;;;1.55;;
65206;SDS011;58477;48.072;11.970;2022-08-11T19:16:26;3.28;;;1.83;;
65206;SDS011;58477;48.072;11.970;2022-08-11T19:19:12;3.35;;;1.60;;
65206;SDS011;58477;48.072;11.970;2022-08-11T19:21:57;1.33;;;1.23;;
65206;SDS011;58477;48.072;11.970;2022-08-11T19:24:43;1.30;;;1.20;;
65206;SDS011;58477;48.072;11.970;2022-08-11T19:27:29;2.53;;;1.33;;